sensor_id;sensor_type;location;lat;lon;timestamp;P1;durP1;ratioP1;P2;durP2;ratioP2
66371;SDS011;53168;51.146;17.120;2023-07-31T00:01:33;2.64;;;2.64;;
66371;SDS011;53168;51.146;17.120;2023-07-31T00:04:08;2.63;;;2.63;;
66371;SDS011;53168;51.146;17.120;2023-07-31T00:06:42;2.37;;;2.37;;
66371;SDS011;53168;51.146;17.120;2023-07-31T00:09:17;2.89;;;2.89;;
66371;SDS011;53168;51.146;17.120;2023-07-31T00:11:51;2.83;;;2.83;;
66371;SDS011;53168;51.146;17.120;2023-07-31T00:14:25;2.83;;;2.83;;
66371;SDS011;53168;51.146;17.120;2023-07-31T00:42:40;2.73;;;2.73;;
66371;SDS011;53168;51.146;17.120;2023-07-31T00:45:16;2.82;;;2.82;;
66371;SDS011;53168;51.146;17.120;2023-07-31T00:47:52;3.03;;;3.03;;
66371;SDS011;53168;51.146;17.120;2023-07-31T00:50:26;2.75;;;2.75;;
66371;SDS011;53168;51.146;17.120;2023-07-31T00:53:03;2.94;;;2.94;;
66371;SDS011;53168;51.146;17.120;2023-07-31T00:55:37;3.21;;;3.21;;
66371;SDS011;53168;51.146;17.120;2023-07-31T00:58:11;3.02;;;3.02;;
66371;SDS011;53168;51.146;17.120;2023-07-31T01:00:45;2.54;;;2.54;;
66371;SDS011;53168;51.146;17.120;2023-07-31T01:03:20;2.65;;;2.65;;
66371;SDS011;53168;51.146;17.120;2023-07-31T01:05:56;2.72;;;2.72;;
66371;SDS011;53168;51.146;17.120;2023-07-31T01:08:51;2.75;;;2.75;;
66371;SDS011;53168;51.146;17.120;2023-07-31T01:11:34;2.66;;;2.66;;
66371;SDS011;53168;51.146;17.120;2023-07-31T01:14:17;2.78;;;2.78;;
66371;SDS011;53168;51.146;17.120;2023-07-31T01:16:51;2.48;;;2.48;;
66371;SDS011;53168;51.146;17.120;2023-07-31T01:19:25;2.93;;;2.93;;
66371;SDS011;53168;51.146;17.120;2023-07-31T01:22:05;2.74;;;2.74;;
66371;SDS011;53168;51.146;17.120;2023-07-31T01:25:09;2.77;;;2.77;;
66371;SDS011;53168;51.146;17.120;2023-07-31T01:28:09;2.45;;;2.45;;
66371;SDS011;53168;51.146;17.120;2023-07-31T01:30:55;2.70;;;2.70;;
66371;SDS011;53168;51.146;17.120;2023-07-31T01:33:36;2.75;;;2.75;;
66371;SDS011;53168;51.146;17.120;2023-07-31T01:36:12;2.79;;;2.79;;
66371;SDS011;53168;51.146;17.120;2023-07-31T01:38:47;2.67;;;2.65;;
66371;SDS011;53168;51.146;17.120;2023-07-31T01:41:21;3.01;;;3.01;;
66371;SDS011;53168;51.146;17.120;2023-07-31T01:43:55;2.76;;;2.76;;
66371;SDS011;53168;51.146;17.120;2023-07-31T01:46:29;3.05;;;3.05;;
66371;SDS011;53168;51.146;17.120;2023-07-31T01:49:02;2.83;;;2.82;;
66371;SDS011;53168;51.146;17.120;2023-07-31T01:51:37;3.25;;;3.24;;
66371;SDS011;53168;51.146;17.120;2023-07-31T01:54:11;2.95;;;2.95;;
66371;SDS011;53168;51.146;17.120;2023-07-31T01:56:44;2.88;;;2.88;;
66371;SDS011;53168;51.146;17.120;2023-07-31T01:59:18;3.03;;;3.03;;
66371;SDS011;53168;51.146;17.120;2023-07-31T02:01:51;2.88;;;2.88;;
66371;SDS011;53168;51.146;17.120;2023-07-31T02:04:25;3.16;;;3.16;;
66371;SDS011;53168;51.146;17.120;2023-07-31T02:06:59;3.25;;;3.23;;
66371;SDS011;53168;51.146;17.120;2023-07-31T02:09:33;3.20;;;3.18;;
66371;SDS011;53168;51.146;17.120;2023-07-31T02:12:09;3.07;;;3.07;;
66371;SDS011;53168;51.146;17.120;2023-07-31T02:14:43;2.95;;;2.95;;
66371;SDS011;53168;51.146;17.120;2023-07-31T02:17:17;2.66;;;2.66;;
66371;SDS011;53168;51.146;17.120;2023-07-31T02:19:50;2.64;;;2.64;;
66371;SDS011;53168;51.146;17.120;2023-07-31T02:22:24;2.89;;;2.89;;
66371;SDS011;53168;51.146;17.120;2023-07-31T02:24:58;3.00;;;3.00;;
66371;SDS011;53168;51.146;17.120;2023-07-31T02:27:31;2.84;;;2.84;;
66371;SDS011;53168;51.146;17.120;2023-07-31T02:30:06;2.79;;;2.79;;
66371;SDS011;53168;51.146;17.120;2023-07-31T02:32:42;2.43;;;2.43;;
66371;SDS011;53168;51.146;17.120;2023-07-31T02:35:15;2.32;;;2.32;;
66371;SDS011;53168;51.146;17.120;2023-07-31T02:37:49;2.40;;;2.40;;
66371;SDS011;53168;51.146;17.120;2023-07-31T02:40:22;2.49;;;2.48;;
66371;SDS011;53168;51.146;17.120;2023-07-31T02:42:56;3.04;;;3.03;;
66371;SDS011;53168;51.146;17.120;2023-07-31T02:45:29;3.11;;;3.11;;
66371;SDS011;53168;51.146;17.120;2023-07-31T02:48:04;2.96;;;2.96;;
66371;SDS011;53168;51.146;17.120;2023-07-31T02:50:38;3.04;;;3.04;;
66371;SDS011;53168;51.146;17.120;2023-07-31T02:53:11;2.84;;;2.84;;
66371;SDS011;53168;51.146;17.120;2023-07-31T02:55:45;2.79;;;2.77;;
66371;SDS011;53168;51.146;17.120;2023-07-31T02:58:18;2.93;;;2.90;;
66371;SDS011;53168;51.146;17.120;2023-07-31T03:00:52;2.59;;;2.59;;
66371;SDS011;53168;51.146;17.120;2023-07-31T03:03:28;2.71;;;2.71;;
66371;SDS011;53168;51.146;17.120;2023-07-31T03:06:02;3.19;;;3.19;;
66371;SDS011;53168;51.146;17.120;2023-07-31T03:08:35;3.00;;;3.00;;
66371;SDS011;53168;51.146;17.120;2023-07-31T03:11:09;2.84;;;2.84;;
66371;SDS011;53168;51.146;17.120;2023-07-31T03:13:43;2.75;;;2.75;;
66371;SDS011;53168;51.146;17.120;2023-07-31T03:16:18;2.91;;;2.91;;
66371;SDS011;53168;51.146;17.120;2023-07-31T03:18:51;3.24;;;3.24;;
66371;SDS011;53168;51.146;17.120;2023-07-31T03:21:26;3.39;;;3.38;;
66371;SDS011;53168;51.146;17.120;2023-07-31T03:24:00;2.98;;;2.95;;
66371;SDS011;53168;51.146;17.120;2023-07-31T03:26:34;2.93;;;2.90;;
66371;SDS011;53168;51.146;17.120;2023-07-31T03:29:10;2.88;;;2.87;;
66371;SDS011;53168;51.146;17.120;2023-07-31T03:31:44;2.97;;;2.96;;
66371;SDS011;53168;51.146;17.120;2023-07-31T03:34:18;3.45;;;3.45;;
66371;SDS011;53168;51.146;17.120;2023-07-31T03:36:52;3.09;;;3.09;;
66371;SDS011;53168;51.146;17.120;2023-07-31T03:39:26;3.33;;;3.33;;
66371;SDS011;53168;51.146;17.120;2023-07-31T03:41:59;3.04;;;3.04;;
66371;SDS011;53168;51.146;17.120;2023-07-31T03:44:33;3.14;;;3.14;;
66371;SDS011;53168;51.146;17.120;2023-07-31T03:47:10;3.04;;;3.02;;
66371;SDS011;53168;51.146;17.120;2023-07-31T03:49:44;3.57;;;3.56;;
66371;SDS011;53168;51.146;17.120;2023-07-31T03:52:18;3.12;;;3.12;;
66371;SDS011;53168;51.146;17.120;2023-07-31T03:54:52;3.22;;;3.22;;
66371;SDS011;53168;51.146;17.120;2023-07-31T03:57:25;3.84;;;3.84;;
66371;SDS011;53168;51.146;17.120;2023-07-31T04:00:02;3.31;;;3.31;;
66371;SDS011;53168;51.146;17.120;2023-07-31T04:02:43;3.30;;;3.28;;
66371;SDS011;53168;51.146;17.120;2023-07-31T04:05:17;2.62;;;2.61;;
66371;SDS011;53168;51.146;17.120;2023-07-31T04:07:51;3.41;;;3.41;;
66371;SDS011;53168;51.146;17.120;2023-07-31T04:10:24;3.23;;;3.23;;
66371;SDS011;53168;51.146;17.120;2023-07-31T04:13:00;3.54;;;3.54;;
66371;SDS011;53168;51.146;17.120;2023-07-31T04:15:34;3.18;;;3.18;;
66371;SDS011;53168;51.146;17.120;2023-07-31T04:18:07;3.27;;;3.27;;
66371;SDS011;53168;51.146;17.120;2023-07-31T04:20:42;3.32;;;3.32;;
66371;SDS011;53168;51.146;17.120;2023-07-31T04:23:16;3.18;;;3.18;;
66371;SDS011;53168;51.146;17.120;2023-07-31T04:25:52;3.54;;;3.54;;
66371;SDS011;53168;51.146;17.120;2023-07-31T04:28:26;3.44;;;3.44;;
66371;SDS011;53168;51.146;17.120;2023-07-31T04:31:01;3.29;;;3.29;;
66371;SDS011;53168;51.146;17.120;2023-07-31T04:33:35;2.64;;;2.64;;
66371;SDS011;53168;51.146;17.120;2023-07-31T04:36:09;3.26;;;3.26;;
66371;SDS011;53168;51.146;17.120;2023-07-31T04:38:42;3.29;;;3.29;;
66371;SDS011;53168;51.146;17.120;2023-07-31T04:41:16;3.32;;;3.32;;
66371;SDS011;53168;51.146;17.120;2023-07-31T04:43:50;3.08;;;3.08;;
66371;SDS011;53168;51.146;17.120;2023-07-31T04:46:24;2.78;;;2.78;;
66371;SDS011;53168;51.146;17.120;2023-07-31T04:48:58;3.18;;;3.18;;
66371;SDS011;53168;51.146;17.120;2023-07-31T04:51:32;3.47;;;3.47;;
66371;SDS011;53168;51.146;17.120;2023-07-31T04:54:06;3.18;;;3.18;;
66371;SDS011;53168;51.146;17.120;2023-07-31T04:56:41;3.56;;;3.56;;
66371;SDS011;53168;51.146;17.120;2023-07-31T04:59:17;3.15;;;3.15;;
66371;SDS011;53168;51.146;17.120;2023-07-31T05:01:50;3.58;;;3.58;;
66371;SDS011;53168;51.146;17.120;2023-07-31T05:04:25;3.33;;;3.33;;
66371;SDS011;53168;51.146;17.120;2023-07-31T05:06:59;3.29;;;3.29;;
66371;SDS011;53168;51.146;17.120;2023-07-31T05:09:33;3.15;;;3.15;;
66371;SDS011;53168;51.146;17.120;2023-07-31T05:12:10;2.93;;;2.93;;
66371;SDS011;53168;51.146;17.120;2023-07-31T05:14:44;3.21;;;3.21;;
66371;SDS011;53168;51.146;17.120;2023-07-31T05:17:17;3.08;;;3.08;;
66371;SDS011;53168;51.146;17.120;2023-07-31T05:19:51;3.24;;;3.24;;
66371;SDS011;53168;51.146;17.120;2023-07-31T05:22:25;3.05;;;3.03;;
66371;SDS011;53168;51.146;17.120;2023-07-31T05:24:58;2.81;;;2.81;;
66371;SDS011;53168;51.146;17.120;2023-07-31T05:27:32;3.06;;;3.06;;
66371;SDS011;53168;51.146;17.120;2023-07-31T05:30:07;3.53;;;3.53;;
66371;SDS011;53168;51.146;17.120;2023-07-31T05:32:41;3.45;;;3.45;;
66371;SDS011;53168;51.146;17.120;2023-07-31T05:35:15;3.47;;;3.47;;
66371;SDS011;53168;51.146;17.120;2023-07-31T05:37:49;3.57;;;3.57;;
66371;SDS011;53168;51.146;17.120;2023-07-31T05:40:22;3.65;;;3.65;;
66371;SDS011;53168;51.146;17.120;2023-07-31T05:42:56;3.77;;;3.77;;
66371;SDS011;53168;51.146;17.120;2023-07-31T05:45:29;3.53;;;3.53;;
66371;SDS011;53168;51.146;17.120;2023-07-31T05:48:03;4.08;;;4.08;;
66371;SDS011;53168;51.146;17.120;2023-07-31T05:50:37;3.67;;;3.67;;
66371;SDS011;53168;51.146;17.120;2023-07-31T05:53:11;3.78;;;3.78;;
66371;SDS011;53168;51.146;17.120;2023-07-31T05:55:46;3.67;;;3.67;;
66371;SDS011;53168;51.146;17.120;2023-07-31T05:58:20;3.65;;;3.65;;
66371;SDS011;53168;51.146;17.120;2023-07-31T06:00:55;3.80;;;3.80;;
66371;SDS011;53168;51.146;17.120;2023-07-31T06:03:30;3.80;;;3.80;;
66371;SDS011;53168;51.146;17.120;2023-07-31T06:06:04;3.92;;;3.92;;
66371;SDS011;53168;51.146;17.120;2023-07-31T06:08:38;4.05;;;4.05;;
66371;SDS011;53168;51.146;17.120;2023-07-31T06:11:13;3.57;;;3.57;;
66371;SDS011;53168;51.146;17.120;2023-07-31T06:13:50;3.58;;;3.58;;
66371;SDS011;53168;51.146;17.120;2023-07-31T06:16:26;3.51;;;3.51;;
66371;SDS011;53168;51.146;17.120;2023-07-31T06:19:00;3.57;;;3.57;;
66371;SDS011;53168;51.146;17.120;2023-07-31T06:21:36;3.71;;;3.71;;
66371;SDS011;53168;51.146;17.120;2023-07-31T06:24:15;3.19;;;3.19;;
66371;SDS011;53168;51.146;17.120;2023-07-31T06:26:52;3.64;;;3.64;;
66371;SDS011;53168;51.146;17.120;2023-07-31T06:29:28;3.25;;;3.25;;
66371;SDS011;53168;51.146;17.120;2023-07-31T06:32:04;2.95;;;2.95;;
66371;SDS011;53168;51.146;17.120;2023-07-31T07:24:40;2.49;;;2.49;;
66371;SDS011;53168;51.146;17.120;2023-07-31T07:27:15;2.50;;;2.50;;
66371;SDS011;53168;51.146;17.120;2023-07-31T07:29:51;2.40;;;2.40;;
66371;SDS011;53168;51.146;17.120;2023-07-31T07:32:25;2.47;;;2.47;;
66371;SDS011;53168;51.146;17.120;2023-07-31T07:35:00;2.09;;;2.09;;
66371;SDS011;53168;51.146;17.120;2023-07-31T07:37:36;2.06;;;2.06;;
66371;SDS011;53168;51.146;17.120;2023-07-31T07:40:11;2.40;;;2.40;;
66371;SDS011;53168;51.146;17.120;2023-07-31T07:42:45;2.24;;;2.24;;
66371;SDS011;53168;51.146;17.120;2023-07-31T07:45:32;2.47;;;2.47;;
66371;SDS011;53168;51.146;17.120;2023-07-31T07:48:06;2.28;;;2.28;;
66371;SDS011;53168;51.146;17.120;2023-07-31T07:50:41;2.19;;;2.19;;
66371;SDS011;53168;51.146;17.120;2023-07-31T08:00:21;1.95;;;1.95;;
66371;SDS011;53168;51.146;17.120;2023-07-31T08:02:55;1.92;;;1.92;;
66371;SDS011;53168;51.146;17.120;2023-07-31T08:05:29;1.99;;;1.99;;
66371;SDS011;53168;51.146;17.120;2023-07-31T08:08:05;1.77;;;1.77;;
66371;SDS011;53168;51.146;17.120;2023-07-31T08:10:45;2.00;;;2.00;;
66371;SDS011;53168;51.146;17.120;2023-07-31T08:13:22;2.10;;;2.10;;
66371;SDS011;53168;51.146;17.120;2023-07-31T08:15:57;1.97;;;1.97;;
66371;SDS011;53168;51.146;17.120;2023-07-31T08:18:31;2.11;;;2.11;;
66371;SDS011;53168;51.146;17.120;2023-07-31T08:21:09;1.85;;;1.85;;
66371;SDS011;53168;51.146;17.120;2023-07-31T08:24:07;2.10;;;2.10;;
66371;SDS011;53168;51.146;17.120;2023-07-31T08:26:46;1.88;;;1.88;;
66371;SDS011;53168;51.146;17.120;2023-07-31T08:29:33;2.00;;;2.00;;
66371;SDS011;53168;51.146;17.120;2023-07-31T08:32:16;1.85;;;1.85;;
66371;SDS011;53168;51.146;17.120;2023-07-31T08:34:51;2.07;;;2.07;;
66371;SDS011;53168;51.146;17.120;2023-07-31T08:37:25;2.14;;;2.14;;
66371;SDS011;53168;51.146;17.120;2023-07-31T08:39:59;1.82;;;1.82;;
66371;SDS011;53168;51.146;17.120;2023-07-31T08:42:41;2.06;;;2.06;;
66371;SDS011;53168;51.146;17.120;2023-07-31T08:45:19;1.96;;;1.96;;
66371;SDS011;53168;51.146;17.120;2023-07-31T08:47:54;2.25;;;2.25;;
66371;SDS011;53168;51.146;17.120;2023-07-31T08:50:31;1.97;;;1.97;;
66371;SDS011;53168;51.146;17.120;2023-07-31T08:53:05;2.01;;;2.01;;
66371;SDS011;53168;51.146;17.120;2023-07-31T08:55:39;1.77;;;1.77;;
66371;SDS011;53168;51.146;17.120;2023-07-31T08:58:21;1.96;;;1.96;;
66371;SDS011;53168;51.146;17.120;2023-07-31T09:01:24;2.01;;;2.01;;
66371;SDS011;53168;51.146;17.120;2023-07-31T09:07:32;2.20;;;2.20;;
66371;SDS011;53168;51.146;17.120;2023-07-31T09:13:22;2.44;;;2.44;;
66371;SDS011;53168;51.146;17.120;2023-07-31T09:16:13;2.38;;;2.38;;
66371;SDS011;53168;51.146;17.120;2023-07-31T09:19:05;2.16;;;2.16;;
66371;SDS011;53168;51.146;17.120;2023-07-31T09:21:56;2.42;;;2.42;;
66371;SDS011;53168;51.146;17.120;2023-07-31T09:24:44;2.57;;;2.57;;
66371;SDS011;53168;51.146;17.120;2023-07-31T09:27:28;2.66;;;2.66;;
66371;SDS011;53168;51.146;17.120;2023-07-31T09:30:24;2.60;;;2.60;;
66371;SDS011;53168;51.146;17.120;2023-07-31T09:33:16;2.95;;;2.95;;
66371;SDS011;53168;51.146;17.120;2023-07-31T09:35:52;2.83;;;2.83;;
66371;SDS011;53168;51.146;17.120;2023-07-31T09:38:27;3.31;;;3.31;;
66371;SDS011;53168;51.146;17.120;2023-07-31T09:41:06;3.27;;;3.27;;
66371;SDS011;53168;51.146;17.120;2023-07-31T09:43:54;3.33;;;3.33;;
66371;SDS011;53168;51.146;17.120;2023-07-31T09:46:29;3.63;;;3.63;;
66371;SDS011;53168;51.146;17.120;2023-07-31T09:49:09;3.26;;;3.26;;
66371;SDS011;53168;51.146;17.120;2023-07-31T09:51:44;3.19;;;3.19;;
66371;SDS011;53168;51.146;17.120;2023-07-31T09:54:27;3.16;;;3.16;;
66371;SDS011;53168;51.146;17.120;2023-07-31T09:57:04;3.27;;;3.27;;
66371;SDS011;53168;51.146;17.120;2023-07-31T09:59:53;2.79;;;2.79;;
66371;SDS011;53168;51.146;17.120;2023-07-31T10:02:49;2.96;;;2.96;;
66371;SDS011;53168;51.146;17.120;2023-07-31T10:09:14;2.69;;;2.69;;
66371;SDS011;53168;51.146;17.120;2023-07-31T10:12:00;2.81;;;2.81;;
66371;SDS011;53168;51.146;17.120;2023-07-31T10:19:24;2.63;;;2.63;;
66371;SDS011;53168;51.146;17.120;2023-07-31T10:22:22;2.57;;;2.57;;
66371;SDS011;53168;51.146;17.120;2023-07-31T10:25:00;2.67;;;2.67;;
66371;SDS011;53168;51.146;17.120;2023-07-31T10:28:29;2.40;;;2.40;;
66371;SDS011;53168;51.146;17.120;2023-07-31T10:31:08;2.38;;;2.38;;
66371;SDS011;53168;51.146;17.120;2023-07-31T10:33:47;2.37;;;2.37;;
66371;SDS011;53168;51.146;17.120;2023-07-31T10:36:28;2.23;;;2.23;;
66371;SDS011;53168;51.146;17.120;2023-07-31T10:39:05;2.19;;;2.19;;
66371;SDS011;53168;51.146;17.120;2023-07-31T10:42:14;1.98;;;1.98;;
66371;SDS011;53168;51.146;17.120;2023-07-31T10:44:49;1.94;;;1.94;;
66371;SDS011;53168;51.146;17.120;2023-07-31T11:56:41;2.51;;;2.51;;
66371;SDS011;53168;51.146;17.120;2023-07-31T11:59:15;2.35;;;2.35;;
66371;SDS011;53168;51.146;17.120;2023-07-31T12:01:47;2.64;;;2.64;;
66371;SDS011;53168;51.146;17.120;2023-07-31T12:07:17;2.78;;;2.78;;
66371;SDS011;53168;51.146;17.120;2023-07-31T12:09:52;2.53;;;2.53;;
66371;SDS011;53168;51.146;17.120;2023-07-31T12:12:23;2.55;;;2.55;;
66371;SDS011;53168;51.146;17.120;2023-07-31T12:14:58;2.47;;;2.47;;
66371;SDS011;53168;51.146;17.120;2023-07-31T12:17:31;2.45;;;2.45;;
66371;SDS011;53168;51.146;17.120;2023-07-31T12:20:01;2.44;;;2.44;;
66371;SDS011;53168;51.146;17.120;2023-07-31T12:22:41;2.50;;;2.50;;
66371;SDS011;53168;51.146;17.120;2023-07-31T12:25:15;2.29;;;2.29;;
66371;SDS011;53168;51.146;17.120;2023-07-31T12:27:46;2.35;;;2.35;;
66371;SDS011;53168;51.146;17.120;2023-07-31T12:30:29;2.81;;;2.81;;
66371;SDS011;53168;51.146;17.120;2023-07-31T12:33:12;2.45;;;2.45;;
66371;SDS011;53168;51.146;17.120;2023-07-31T12:35:52;2.56;;;2.56;;
66371;SDS011;53168;51.146;17.120;2023-07-31T12:38:23;2.62;;;2.62;;
66371;SDS011;53168;51.146;17.120;2023-07-31T12:40:52;2.69;;;2.69;;
66371;SDS011;53168;51.146;17.120;2023-07-31T12:43:40;2.46;;;2.46;;
66371;SDS011;53168;51.146;17.120;2023-07-31T12:46:14;2.53;;;2.53;;
66371;SDS011;53168;51.146;17.120;2023-07-31T12:48:44;2.54;;;2.54;;
66371;SDS011;53168;51.146;17.120;2023-07-31T12:51:19;2.89;;;2.89;;
66371;SDS011;53168;51.146;17.120;2023-07-31T12:53:56;2.51;;;2.51;;
66371;SDS011;53168;51.146;17.120;2023-07-31T12:56:31;2.70;;;2.70;;
66371;SDS011;53168;51.146;17.120;2023-07-31T13:40:50;3.27;;;3.27;;
66371;SDS011;53168;51.146;17.120;2023-07-31T13:43:24;3.05;;;3.05;;
66371;SDS011;53168;51.146;17.120;2023-07-31T13:45:58;2.90;;;2.90;;
66371;SDS011;53168;51.146;17.120;2023-07-31T13:48:36;3.14;;;3.14;;
66371;SDS011;53168;51.146;17.120;2023-07-31T13:51:11;2.97;;;2.97;;
66371;SDS011;53168;51.146;17.120;2023-07-31T13:53:45;3.01;;;3.01;;
66371;SDS011;53168;51.146;17.120;2023-07-31T13:56:19;2.85;;;2.85;;
66371;SDS011;53168;51.146;17.120;2023-07-31T13:58:53;3.14;;;3.14;;
66371;SDS011;53168;51.146;17.120;2023-07-31T14:01:28;3.10;;;3.10;;
66371;SDS011;53168;51.146;17.120;2023-07-31T14:04:02;3.07;;;3.07;;
66371;SDS011;53168;51.146;17.120;2023-07-31T14:06:36;2.87;;;2.87;;
66371;SDS011;53168;51.146;17.120;2023-07-31T14:09:10;3.27;;;3.27;;
66371;SDS011;53168;51.146;17.120;2023-07-31T14:11:46;2.81;;;2.81;;
66371;SDS011;53168;51.146;17.120;2023-07-31T14:14:19;3.13;;;3.13;;
66371;SDS011;53168;51.146;17.120;2023-07-31T14:16:53;3.31;;;3.31;;
66371;SDS011;53168;51.146;17.120;2023-07-31T14:19:27;3.06;;;3.06;;
66371;SDS011;53168;51.146;17.120;2023-07-31T14:22:02;3.08;;;3.08;;
66371;SDS011;53168;51.146;17.120;2023-07-31T14:24:40;3.23;;;3.23;;
66371;SDS011;53168;51.146;17.120;2023-07-31T14:27:13;3.23;;;3.23;;
66371;SDS011;53168;51.146;17.120;2023-07-31T14:29:47;3.09;;;3.09;;
66371;SDS011;53168;51.146;17.120;2023-07-31T14:32:25;3.07;;;3.07;;
66371;SDS011;53168;51.146;17.120;2023-07-31T14:34:59;2.86;;;2.86;;
66371;SDS011;53168;51.146;17.120;2023-07-31T14:37:38;3.08;;;3.08;;
66371;SDS011;53168;51.146;17.120;2023-07-31T14:40:14;2.87;;;2.87;;
66371;SDS011;53168;51.146;17.120;2023-07-31T14:42:48;3.13;;;3.13;;
66371;SDS011;53168;51.146;17.120;2023-07-31T14:45:22;4.23;;;4.23;;
66371;SDS011;53168;51.146;17.120;2023-07-31T14:47:56;3.14;;;3.14;;
66371;SDS011;53168;51.146;17.120;2023-07-31T14:50:30;3.33;;;3.33;;
66371;SDS011;53168;51.146;17.120;2023-07-31T14:53:04;3.05;;;3.05;;
66371;SDS011;53168;51.146;17.120;2023-07-31T14:55:38;3.38;;;3.38;;
66371;SDS011;53168;51.146;17.120;2023-07-31T14:58:12;3.25;;;3.25;;
66371;SDS011;53168;51.146;17.120;2023-07-31T15:00:47;3.56;;;3.56;;
66371;SDS011;53168;51.146;17.120;2023-07-31T15:03:21;3.20;;;3.20;;
66371;SDS011;53168;51.146;17.120;2023-07-31T15:05:55;3.47;;;3.47;;
66371;SDS011;53168;51.146;17.120;2023-07-31T15:08:29;3.22;;;3.22;;
66371;SDS011;53168;51.146;17.120;2023-07-31T15:11:03;3.46;;;3.46;;
66371;SDS011;53168;51.146;17.120;2023-07-31T15:13:37;3.25;;;3.25;;
66371;SDS011;53168;51.146;17.120;2023-07-31T15:16:11;3.01;;;3.01;;
66371;SDS011;53168;51.146;17.120;2023-07-31T15:18:45;2.89;;;2.89;;
66371;SDS011;53168;51.146;17.120;2023-07-31T15:21:19;2.96;;;2.96;;
66371;SDS011;53168;51.146;17.120;2023-07-31T15:23:53;2.33;;;2.33;;
66371;SDS011;53168;51.146;17.120;2023-07-31T15:26:39;2.14;;;2.14;;
66371;SDS011;53168;51.146;17.120;2023-07-31T15:35:46;2.63;;;2.63;;
66371;SDS011;53168;51.146;17.120;2023-07-31T15:38:25;2.64;;;2.64;;
66371;SDS011;53168;51.146;17.120;2023-07-31T15:41:00;2.78;;;2.78;;
66371;SDS011;53168;51.146;17.120;2023-07-31T15:43:35;2.45;;;2.45;;
66371;SDS011;53168;51.146;17.120;2023-07-31T15:46:12;2.54;;;2.54;;
66371;SDS011;53168;51.146;17.120;2023-07-31T15:48:49;2.75;;;2.75;;
66371;SDS011;53168;51.146;17.120;2023-07-31T15:51:25;2.90;;;2.90;;
66371;SDS011;53168;51.146;17.120;2023-07-31T15:54:01;2.97;;;2.97;;
66371;SDS011;53168;51.146;17.120;2023-07-31T15:56:52;3.08;;;3.08;;
66371;SDS011;53168;51.146;17.120;2023-07-31T15:59:26;2.82;;;2.82;;
66371;SDS011;53168;51.146;17.120;2023-07-31T16:02:04;2.90;;;2.90;;
66371;SDS011;53168;51.146;17.120;2023-07-31T16:05:00;2.66;;;2.66;;
66371;SDS011;53168;51.146;17.120;2023-07-31T16:08:10;2.89;;;2.89;;
66371;SDS011;53168;51.146;17.120;2023-07-31T16:10:56;2.87;;;2.87;;
66371;SDS011;53168;51.146;17.120;2023-07-31T16:13:33;2.55;;;2.55;;
66371;SDS011;53168;51.146;17.120;2023-07-31T16:19:28;2.57;;;2.57;;
66371;SDS011;53168;51.146;17.120;2023-07-31T16:22:05;2.35;;;2.35;;
66371;SDS011;53168;51.146;17.120;2023-07-31T16:24:40;2.42;;;2.42;;
66371;SDS011;53168;51.146;17.120;2023-07-31T16:27:58;2.53;;;2.53;;
66371;SDS011;53168;51.146;17.120;2023-07-31T16:30:54;2.51;;;2.51;;
66371;SDS011;53168;51.146;17.120;2023-07-31T16:33:37;2.78;;;2.78;;
66371;SDS011;53168;51.146;17.120;2023-07-31T16:36:25;2.84;;;2.84;;
66371;SDS011;53168;51.146;17.120;2023-07-31T16:39:22;3.34;;;3.34;;
66371;SDS011;53168;51.146;17.120;2023-07-31T16:42:35;3.15;;;3.15;;
66371;SDS011;53168;51.146;17.120;2023-07-31T16:45:45;3.08;;;3.08;;
66371;SDS011;53168;51.146;17.120;2023-07-31T16:48:46;2.71;;;2.71;;
66371;SDS011;53168;51.146;17.120;2023-07-31T16:51:33;2.80;;;2.80;;
66371;SDS011;53168;51.146;17.120;2023-07-31T16:54:41;3.00;;;3.00;;
66371;SDS011;53168;51.146;17.120;2023-07-31T16:57:20;2.76;;;2.76;;
66371;SDS011;53168;51.146;17.120;2023-07-31T16:59:58;2.57;;;2.57;;
66371;SDS011;53168;51.146;17.120;2023-07-31T17:02:41;2.75;;;2.75;;
66371;SDS011;53168;51.146;17.120;2023-07-31T17:05:23;2.79;;;2.79;;
66371;SDS011;53168;51.146;17.120;2023-07-31T17:08:09;3.00;;;3.00;;
66371;SDS011;53168;51.146;17.120;2023-07-31T17:10:54;3.05;;;3.05;;
66371;SDS011;53168;51.146;17.120;2023-07-31T17:13:48;2.73;;;2.73;;
66371;SDS011;53168;51.146;17.120;2023-07-31T17:16:23;2.76;;;2.76;;
66371;SDS011;53168;51.146;17.120;2023-07-31T17:18:58;2.75;;;2.75;;
66371;SDS011;53168;51.146;17.120;2023-07-31T17:21:33;2.24;;;2.24;;
66371;SDS011;53168;51.146;17.120;2023-07-31T17:24:10;2.57;;;2.57;;
66371;SDS011;53168;51.146;17.120;2023-07-31T17:26:44;2.74;;;2.74;;
66371;SDS011;53168;51.146;17.120;2023-07-31T17:29:20;2.49;;;2.49;;
66371;SDS011;53168;51.146;17.120;2023-07-31T17:32:14;2.67;;;2.67;;
66371;SDS011;53168;51.146;17.120;2023-07-31T17:34:55;2.52;;;2.52;;
66371;SDS011;53168;51.146;17.120;2023-07-31T17:37:38;2.56;;;2.56;;
66371;SDS011;53168;51.146;17.120;2023-07-31T17:40:13;2.82;;;2.82;;
66371;SDS011;53168;51.146;17.120;2023-07-31T17:42:48;2.96;;;2.96;;
66371;SDS011;53168;51.146;17.120;2023-07-31T17:45:23;2.75;;;2.75;;
66371;SDS011;53168;51.146;17.120;2023-07-31T17:47:58;2.52;;;2.52;;
66371;SDS011;53168;51.146;17.120;2023-07-31T17:50:42;2.37;;;2.37;;
66371;SDS011;53168;51.146;17.120;2023-07-31T17:53:22;2.62;;;2.62;;
66371;SDS011;53168;51.146;17.120;2023-07-31T17:55:56;2.49;;;2.49;;
66371;SDS011;53168;51.146;17.120;2023-07-31T17:58:31;2.44;;;2.44;;
66371;SDS011;53168;51.146;17.120;2023-07-31T18:01:08;2.71;;;2.71;;
66371;SDS011;53168;51.146;17.120;2023-07-31T18:03:45;2.69;;;2.69;;
66371;SDS011;53168;51.146;17.120;2023-07-31T18:06:19;2.34;;;2.34;;
66371;SDS011;53168;51.146;17.120;2023-07-31T18:08:59;2.57;;;2.57;;
66371;SDS011;53168;51.146;17.120;2023-07-31T18:11:34;2.33;;;2.33;;
66371;SDS011;53168;51.146;17.120;2023-07-31T18:14:07;2.48;;;2.48;;
66371;SDS011;53168;51.146;17.120;2023-07-31T18:16:42;2.57;;;2.57;;
66371;SDS011;53168;51.146;17.120;2023-07-31T18:19:17;2.47;;;2.47;;
66371;SDS011;53168;51.146;17.120;2023-07-31T18:21:51;2.38;;;2.38;;
66371;SDS011;53168;51.146;17.120;2023-07-31T18:24:25;3.00;;;3.00;;
66371;SDS011;53168;51.146;17.120;2023-07-31T18:26:59;2.48;;;2.48;;
66371;SDS011;53168;51.146;17.120;2023-07-31T18:29:35;3.02;;;3.02;;
66371;SDS011;53168;51.146;17.120;2023-07-31T18:32:09;2.95;;;2.95;;
66371;SDS011;53168;51.146;17.120;2023-07-31T18:34:43;2.98;;;2.98;;
66371;SDS011;53168;51.146;17.120;2023-07-31T18:37:19;2.81;;;2.81;;
66371;SDS011;53168;51.146;17.120;2023-07-31T18:39:55;3.15;;;3.15;;
66371;SDS011;53168;51.146;17.120;2023-07-31T18:42:33;3.16;;;3.16;;
66371;SDS011;53168;51.146;17.120;2023-07-31T18:45:08;3.06;;;3.06;;
66371;SDS011;53168;51.146;17.120;2023-07-31T18:47:45;2.91;;;2.91;;
66371;SDS011;53168;51.146;17.120;2023-07-31T18:50:20;3.27;;;3.27;;
66371;SDS011;53168;51.146;17.120;2023-07-31T18:52:57;3.08;;;3.08;;
66371;SDS011;53168;51.146;17.120;2023-07-31T18:55:42;3.40;;;3.40;;
66371;SDS011;53168;51.146;17.120;2023-07-31T18:58:19;3.54;;;3.54;;
66371;SDS011;53168;51.146;17.120;2023-07-31T19:04:14;3.74;;;3.73;;
66371;SDS011;53168;51.146;17.120;2023-07-31T19:09:50;4.08;;;4.08;;
66371;SDS011;53168;51.146;17.120;2023-07-31T19:13:02;3.79;;;3.79;;
66371;SDS011;53168;51.146;17.120;2023-07-31T19:15:50;3.72;;;3.72;;
66371;SDS011;53168;51.146;17.120;2023-07-31T19:19:16;3.54;;;3.54;;
66371;SDS011;53168;51.146;17.120;2023-07-31T19:22:03;3.79;;;3.79;;
66371;SDS011;53168;51.146;17.120;2023-07-31T19:25:12;3.64;;;3.64;;